createdAt,value
2018-07-21T00:01:08.026Z,100.00
2018-07-21T00:03:34.938Z,100.00
2018-07-21T00:06:01.941Z,100.00
2018-07-21T00:08:29.324Z,100.00
2018-07-21T00:10:56.437Z,100.00
2018-07-21T00:13:23.440Z,100.00
2018-07-21T00:15:50.396Z,100.00
2018-07-21T00:18:17.292Z,100.00
2018-07-21T00:20:44.180Z,100.00
2018-07-21T00:23:11.092Z,100.00
2018-07-21T00:25:39.025Z,100.00
2018-07-21T00:28:06.284Z,100.00
2018-07-21T00:30:33.850Z,100.00
2018-07-21T00:33:01.310Z,100.00
2018-07-21T00:35:29.188Z,100.00
2018-07-21T00:37:56.275Z,100.00
2018-07-21T00:40:23.630Z,100.00
2018-07-21T00:42:51.409Z,100.00
2018-07-21T00:45:19.075Z,100.00
2018-07-21T00:47:45.976Z,100.00
2018-07-21T00:50:12.864Z,100.00
2018-07-21T00:52:39.773Z,100.00
2018-07-21T00:55:06.745Z,100.00
2018-07-21T00:57:33.740Z,100.00
2018-07-21T01:00:00.658Z,100.00
2018-07-21T01:02:27.596Z,100.00
2018-07-21T01:04:54.512Z,100.00
2018-07-21T01:07:21.408Z,100.00
2018-07-21T01:09:48.320Z,100.00
2018-07-21T01:12:15.223Z,100.00
2018-07-21T01:14:42.124Z,100.00
2018-07-21T01:17:09.024Z,100.00
2018-07-21T01:19:35.929Z,100.00
2018-07-21T01:22:02.816Z,100.00
2018-07-21T01:24:29.760Z,100.00
2018-07-21T01:26:56.656Z,100.00
2018-07-21T01:29:24.386Z,100.00
2018-07-21T01:31:51.296Z,100.00
2018-07-21T01:34:18.204Z,100.00
2018-07-21T01:36:45.093Z,100.00
2018-07-21T01:39:12.053Z,100.00
2018-07-21T01:41:39.243Z,100.00
2018-07-21T01:44:06.189Z,100.00
2018-07-21T01:46:33.114Z,100.00
2018-07-21T01:49:00.046Z,100.00
2018-07-21T01:51:26.976Z,100.00
2018-07-21T01:53:53.887Z,100.00
2018-07-21T01:56:20.804Z,100.00
2018-07-21T01:58:47.719Z,100.00
2018-07-21T02:01:14.628Z,100.00
2018-07-21T02:03:44.230Z,100.00
2018-07-21T02:06:11.121Z,100.00
2018-07-21T02:08:38.028Z,100.00
2018-07-21T02:11:04.912Z,100.00
2018-07-21T02:13:31.824Z,100.00
2018-07-21T02:15:58.696Z,100.00
2018-07-21T02:18:25.555Z,100.00
2018-07-21T02:20:52.439Z,100.00
2018-07-21T02:23:19.300Z,100.00
2018-07-21T02:25:46.183Z,100.00
2018-07-21T02:28:13.090Z,100.00
2018-07-21T02:30:39.979Z,100.00
2018-07-21T02:33:06.859Z,100.00
2018-07-21T02:35:33.764Z,100.00
2018-07-21T02:38:00.632Z,100.00
2018-07-21T02:40:27.608Z,100.00
2018-07-21T02:42:54.505Z,100.00
2018-07-21T02:45:21.420Z,100.00
2018-07-21T02:47:48.308Z,100.00
2018-07-21T02:50:15.185Z,100.00
2018-07-21T02:52:42.064Z,100.00
2018-07-21T02:55:08.961Z,100.00
2018-07-21T02:57:35.928Z,100.00
2018-07-21T03:00:02.917Z,100.00
2018-07-21T03:02:29.836Z,100.00
2018-07-21T03:04:56.736Z,100.00
2018-07-21T03:07:23.608Z,100.00
2018-07-21T03:09:50.553Z,100.00
2018-07-21T03:12:17.386Z,100.00
2018-07-21T03:14:44.298Z,100.00
2018-07-21T03:17:11.639Z,100.00
2018-07-21T03:19:38.540Z,100.00
2018-07-21T03:22:05.433Z,100.00
2018-07-21T03:24:32.325Z,100.00
2018-07-21T03:26:59.230Z,100.00
2018-07-21T03:29:26.119Z,100.00
2018-07-21T03:31:53.017Z,100.00
2018-07-21T03:34:19.903Z,100.00
2018-07-21T03:36:46.780Z,100.00
2018-07-21T03:39:13.668Z,100.00
2018-07-21T03:41:40.568Z,100.00
2018-07-21T03:44:07.447Z,100.00
2018-07-21T03:46:34.676Z,100.00
2018-07-21T03:49:01.552Z,100.00
2018-07-21T03:51:28.455Z,100.00
2018-07-21T03:53:55.348Z,100.00
2018-07-21T03:56:22.231Z,100.00
2018-07-21T03:58:49.116Z,100.00
2018-07-21T04:01:16.012Z,100.00
2018-07-21T04:03:42.905Z,100.00
2018-07-21T04:06:09.796Z,100.00
2018-07-21T04:08:36.683Z,100.00
2018-07-21T04:11:03.576Z,100.00
2018-07-21T04:13:30.448Z,100.00
2018-07-21T04:15:57.325Z,100.00
2018-07-21T04:18:24.207Z,100.00
2018-07-21T04:20:51.092Z,100.00
2018-07-21T04:23:17.981Z,100.00
2018-07-21T04:25:44.892Z,100.00
2018-07-21T04:28:11.765Z,100.00
2018-07-21T04:30:38.656Z,100.00
2018-07-21T04:33:05.551Z,100.00
2018-07-21T04:35:32.456Z,100.00
2018-07-21T04:37:59.428Z,100.00
2018-07-21T04:40:26.349Z,100.00
2018-07-21T04:42:53.236Z,100.00
2018-07-21T04:45:20.141Z,100.00
2018-07-21T04:47:47.027Z,100.00
2018-07-21T04:50:13.923Z,100.00
2018-07-21T04:52:40.804Z,100.00
2018-07-21T04:55:07.704Z,100.00
2018-07-21T04:57:34.593Z,100.00
2018-07-21T05:00:01.520Z,100.00
2018-07-21T05:02:28.421Z,100.00
2018-07-21T05:04:55.319Z,100.00
2018-07-21T05:07:22.236Z,100.00
2018-07-21T05:09:49.115Z,100.00
2018-07-21T05:12:16.021Z,100.00
2018-07-21T05:14:42.899Z,100.00
2018-07-21T05:17:09.799Z,100.00
2018-07-21T05:19:36.683Z,100.00
2018-07-21T05:22:03.593Z,100.00
2018-07-21T05:24:30.484Z,100.00
2018-07-21T05:26:57.392Z,100.00
2018-07-21T05:29:24.302Z,99.39
2018-07-21T05:31:51.193Z,100.00
2018-07-21T05:34:18.089Z,99.24
2018-07-21T05:36:44.993Z,99.04
2018-07-21T05:39:11.986Z,98.51
2018-07-21T05:41:39.432Z,98.16
2018-07-21T05:44:06.333Z,97.63
2018-07-21T05:46:33.520Z,96.65
2018-07-21T05:49:00.413Z,95.67
2018-07-21T05:51:27.319Z,95.59
2018-07-21T05:53:54.215Z,94.85
2018-07-21T05:56:21.121Z,96.93
2018-07-21T05:58:48.004Z,96.61
2018-07-21T06:01:14.908Z,94.54
2018-07-21T06:03:41.830Z,95.51
2018-07-21T06:06:08.562Z,91.82
2018-07-21T06:08:35.451Z,94.33
2018-07-21T06:11:02.403Z,95.08
2018-07-21T06:13:29.256Z,90.30
2018-07-21T06:15:56.161Z,90.50
2018-07-21T06:18:23.069Z,90.86
2018-07-21T06:20:49.947Z,89.96
2018-07-21T06:23:16.836Z,89.41
2018-07-21T06:25:43.746Z,92.18
2018-07-21T06:28:10.663Z,87.29
2018-07-21T06:30:37.541Z,84.34
2018-07-21T06:33:04.636Z,80.75
2018-07-21T06:35:31.571Z,80.72
2018-07-21T06:37:58.470Z,78.85
2018-07-21T06:40:25.468Z,76.00
2018-07-21T06:42:52.375Z,71.26
2018-07-21T06:45:19.275Z,71.58
2018-07-21T06:47:46.179Z,69.01
2018-07-21T06:50:13.076Z,70.61
2018-07-21T06:52:39.985Z,69.44
2018-07-21T06:55:10.381Z,69.46
2018-07-21T06:57:37.484Z,68.05
2018-07-21T07:00:04.509Z,67.68
2018-07-21T07:02:31.397Z,64.82
2018-07-21T07:04:58.280Z,63.83
2018-07-21T07:07:25.170Z,63.77
2018-07-21T07:09:52.080Z,63.68
2018-07-21T07:12:18.959Z,62.24
2018-07-21T07:14:45.848Z,61.81
2018-07-21T07:17:12.744Z,61.99
2018-07-21T07:19:39.627Z,58.36
2018-07-21T07:22:06.533Z,60.68
2018-07-21T07:24:33.456Z,58.74
2018-07-21T07:27:00.372Z,57.09
2018-07-21T07:29:27.248Z,57.95
2018-07-21T07:31:54.216Z,56.77
2018-07-21T07:34:21.092Z,56.89
2018-07-21T07:36:47.990Z,56.92
2018-07-21T07:39:14.896Z,55.92
2018-07-21T07:41:41.804Z,54.10
2018-07-21T07:44:08.715Z,51.80
2018-07-21T07:46:36.065Z,50.46
2018-07-21T07:49:04.580Z,49.74
2018-07-21T07:51:31.564Z,48.97
2018-07-21T07:53:58.472Z,47.31
2018-07-21T07:56:25.403Z,49.31
2018-07-21T07:58:52.313Z,46.65
2018-07-21T08:01:19.492Z,48.43
2018-07-21T08:03:46.390Z,49.05
2018-07-21T08:06:13.268Z,47.14
2018-07-21T08:08:40.175Z,46.64
2018-07-21T08:11:07.156Z,45.98
2018-07-21T08:13:34.063Z,44.63
2018-07-21T08:16:00.972Z,45.25
2018-07-21T08:18:27.868Z,44.50
2018-07-21T08:20:55.600Z,42.72
2018-07-21T08:23:22.498Z,42.05
2018-07-21T08:25:49.402Z,40.34
2018-07-21T08:28:16.295Z,42.03
2018-07-21T08:30:43.188Z,41.01
2018-07-21T08:33:10.088Z,41.10
2018-07-21T08:35:36.988Z,40.91
2018-07-21T08:38:04.264Z,42.46
2018-07-21T08:40:31.153Z,41.21
2018-07-21T08:42:58.045Z,38.30
2018-07-21T08:45:24.933Z,40.54
2018-07-21T08:47:51.867Z,40.53
2018-07-21T08:50:18.779Z,40.18
2018-07-21T08:52:45.687Z,40.41
2018-07-21T08:55:12.576Z,40.55
2018-07-21T08:57:39.477Z,41.46
2018-07-21T09:00:06.388Z,38.95
2018-07-21T09:02:33.302Z,38.54
2018-07-21T09:05:00.233Z,38.02
2018-07-21T09:07:27.119Z,39.31
2018-07-21T09:09:54.036Z,37.97
2018-07-21T09:12:20.933Z,37.64
2018-07-21T09:14:47.832Z,37.95
2018-07-21T09:17:18.411Z,41.85
2018-07-21T09:19:45.640Z,38.27
2018-07-21T09:22:12.528Z,37.63
2018-07-21T09:24:39.424Z,37.08
2018-07-21T09:27:06.311Z,38.99
2018-07-21T09:29:33.196Z,39.63
2018-07-21T09:32:00.113Z,37.90
2018-07-21T09:34:26.995Z,36.53
2018-07-21T09:36:53.884Z,35.37
2018-07-21T09:39:20.785Z,37.17
2018-07-21T09:41:47.668Z,36.21
2018-07-21T09:44:14.576Z,38.73
2018-07-21T09:46:41.451Z,37.30
2018-07-21T09:49:08.409Z,36.94
2018-07-21T09:51:35.284Z,38.02
2018-07-21T09:54:02.188Z,37.17
2018-07-21T09:56:29.069Z,38.87
2018-07-21T09:58:55.968Z,36.60
2018-07-21T10:01:22.882Z,35.89
2018-07-21T10:03:49.783Z,38.01
2018-07-21T10:06:16.676Z,36.70
2018-07-21T10:08:43.599Z,37.79
2018-07-21T10:11:10.480Z,35.54
2018-07-21T10:13:37.560Z,35.06
2018-07-21T10:16:04.623Z,36.58
2018-07-21T10:18:31.515Z,34.65
2018-07-21T10:20:58.651Z,33.96
2018-07-21T10:23:26.366Z,34.13
2018-07-21T10:25:59.088Z,34.20
2018-07-21T10:28:31.872Z,35.19
2018-07-21T10:30:58.817Z,33.39
2018-07-21T10:33:25.953Z,32.37
2018-07-21T10:35:52.985Z,35.06
2018-07-21T10:38:19.988Z,35.84
2018-07-21T10:40:47.040Z,35.15
2018-07-21T10:43:13.917Z,33.30
2018-07-21T10:45:40.932Z,32.44
2018-07-21T10:48:07.936Z,34.01
2018-07-21T10:50:34.837Z,34.38
2018-07-21T10:53:01.804Z,35.34
2018-07-21T10:55:28.821Z,36.58
2018-07-21T10:57:55.826Z,34.79
2018-07-21T11:00:23.012Z,34.68
2018-07-21T11:02:49.871Z,34.47
2018-07-21T11:05:16.768Z,35.30
2018-07-21T11:07:43.655Z,35.34
2018-07-21T11:10:10.579Z,32.44
2018-07-21T11:12:37.478Z,31.84
2018-07-21T11:15:05.778Z,31.82
2018-07-21T11:17:32.728Z,32.81
2018-07-21T11:19:59.681Z,31.98
2018-07-21T11:22:26.696Z,33.33
2018-07-21T11:24:53.605Z,32.21
2018-07-21T11:27:20.596Z,34.65
2018-07-21T11:29:47.501Z,33.58
2018-07-21T11:32:14.392Z,32.23
2018-07-21T11:34:41.279Z,31.43
2018-07-21T11:37:08.169Z,32.93
2018-07-21T11:39:35.356Z,34.23
2018-07-21T11:42:02.304Z,31.93
2018-07-21T11:44:29.322Z,33.80
2018-07-21T11:46:56.168Z,32.78
2018-07-21T11:49:23.081Z,33.35
2018-07-21T11:51:50.003Z,33.27
2018-07-21T11:54:16.887Z,31.62
2018-07-21T11:56:43.791Z,32.82
2018-07-21T11:59:10.678Z,34.83
2018-07-21T12:01:37.583Z,34.45
2018-07-21T12:04:04.488Z,31.26
2018-07-21T12:06:31.384Z,31.05
2018-07-21T12:08:58.317Z,33.18
2018-07-21T12:11:25.205Z,35.87
2018-07-21T12:13:52.091Z,34.51
2018-07-21T12:16:18.986Z,33.46
2018-07-21T12:18:45.891Z,32.43
2018-07-21T12:21:12.823Z,32.93
2018-07-21T12:23:39.710Z,31.93
2018-07-21T12:26:06.672Z,32.63
2018-07-21T12:28:33.572Z,32.15
2018-07-21T12:31:00.474Z,31.56
2018-07-21T12:33:27.351Z,30.56
2018-07-21T12:35:54.247Z,31.37
2018-07-21T12:38:21.122Z,30.81
2018-07-21T12:40:48.025Z,31.90
2018-07-21T12:43:14.928Z,33.68
2018-07-21T12:45:41.817Z,32.97
2018-07-21T12:48:08.692Z,32.01
2018-07-21T12:50:35.614Z,32.76
2018-07-21T12:53:02.636Z,31.96
2018-07-21T12:55:29.531Z,32.00
2018-07-21T12:57:56.428Z,31.39
2018-07-21T13:00:23.352Z,31.12
2018-07-21T13:02:50.311Z,32.82
2018-07-21T13:05:17.211Z,31.76
2018-07-21T13:07:44.084Z,30.49
2018-07-21T13:10:11.014Z,30.00
2018-07-21T13:12:37.911Z,30.51
2018-07-21T13:15:05.007Z,32.86
2018-07-21T13:17:31.992Z,30.89
2018-07-21T13:19:58.903Z,29.20
2018-07-21T13:22:25.797Z,30.96
2018-07-21T13:24:52.700Z,30.55
2018-07-21T13:27:19.700Z,29.86
2018-07-21T13:29:46.628Z,29.60
2018-07-21T13:32:13.543Z,30.57
2018-07-21T13:34:40.433Z,32.55
2018-07-21T13:37:07.500Z,30.77
2018-07-21T13:39:34.352Z,33.37
2018-07-21T13:42:01.273Z,31.96
2018-07-21T13:44:28.157Z,31.72
2018-07-21T13:46:55.054Z,32.60
2018-07-21T13:49:21.990Z,32.52
2018-07-21T13:51:48.951Z,31.84
2018-07-21T13:54:15.857Z,31.81
2018-07-21T13:56:42.779Z,32.61
2018-07-21T13:59:09.663Z,32.11
2018-07-21T14:01:36.615Z,31.71
2018-07-21T14:04:03.560Z,31.70
2018-07-21T14:06:30.460Z,32.71
2018-07-21T14:08:57.336Z,33.30
2018-07-21T14:11:24.232Z,33.51
2018-07-21T14:13:51.124Z,33.32
2018-07-21T14:16:18.172Z,33.41
2018-07-21T14:18:45.076Z,33.57
2018-07-21T14:21:12.119Z,33.92
2018-07-21T14:23:39.216Z,33.82
2018-07-21T14:26:06.135Z,34.28
2018-07-21T14:28:33.006Z,33.80
2018-07-21T14:31:00.399Z,35.01
2018-07-21T14:33:27.455Z,34.63
2018-07-21T14:35:54.373Z,33.97
2018-07-21T14:38:21.245Z,34.47
2018-07-21T14:40:48.156Z,33.89
2018-07-21T14:43:15.047Z,32.88
2018-07-21T14:45:41.941Z,34.38
2018-07-21T14:48:08.843Z,33.67
2018-07-21T14:50:35.738Z,31.59
2018-07-21T14:53:02.644Z,32.07
2018-07-21T14:55:29.551Z,31.85
2018-07-21T14:57:56.443Z,32.17
2018-07-21T15:00:23.347Z,33.47
2018-07-21T15:02:50.245Z,33.42
2018-07-21T15:05:17.149Z,33.27
2018-07-21T15:07:44.096Z,33.36
2018-07-21T15:10:11.309Z,34.31
2018-07-21T15:12:38.402Z,34.57
2018-07-21T15:15:05.895Z,35.93
2018-07-21T15:17:32.971Z,35.98
2018-07-21T15:20:00.200Z,35.58
2018-07-21T15:22:27.318Z,35.36
2018-07-21T15:24:54.537Z,35.30
2018-07-21T15:27:21.643Z,35.78
2018-07-21T15:29:48.684Z,35.00
2018-07-21T15:32:15.830Z,34.72
2018-07-21T15:34:43.008Z,34.65
2018-07-21T15:37:10.026Z,35.26
2018-07-21T15:39:37.148Z,35.39
2018-07-21T15:42:04.586Z,34.71
2018-07-21T15:44:31.765Z,35.66
2018-07-21T15:46:58.677Z,35.26
2018-07-21T15:49:25.572Z,35.74
2018-07-21T15:51:52.448Z,36.06
2018-07-21T15:54:19.334Z,34.91
2018-07-21T15:56:46.207Z,35.31
2018-07-21T15:59:13.112Z,36.19
2018-07-21T16:01:40.016Z,35.41
2018-07-21T16:04:06.932Z,36.01
2018-07-21T16:06:33.836Z,36.27
2018-07-21T16:09:01.248Z,36.57
2018-07-21T16:11:28.128Z,36.33
2018-07-21T16:13:55.033Z,37.14
2018-07-21T16:16:21.915Z,36.72
2018-07-21T16:18:48.796Z,36.18
2018-07-21T16:21:15.851Z,35.82
2018-07-21T16:23:42.723Z,36.10
2018-07-21T16:26:09.614Z,35.92
2018-07-21T16:28:36.814Z,36.41
2018-07-21T16:31:04.060Z,36.17
2018-07-21T16:33:30.983Z,35.77
2018-07-21T16:35:57.877Z,36.44
2018-07-21T16:38:24.785Z,36.11
2018-07-21T16:40:51.698Z,36.75
2018-07-21T16:43:18.567Z,36.53
2018-07-21T16:45:45.520Z,36.62
2018-07-21T16:48:12.409Z,38.82
2018-07-21T16:50:39.309Z,36.94
2018-07-21T16:53:06.213Z,36.13
2018-07-21T16:55:33.108Z,37.02
2018-07-21T16:58:00.124Z,36.69
2018-07-21T17:00:27.236Z,37.54
2018-07-21T17:02:54.109Z,37.04
2018-07-21T17:05:21.029Z,36.84
2018-07-21T17:07:47.985Z,39.07
2018-07-21T17:10:15.074Z,36.95
2018-07-21T17:12:42.336Z,37.27
2018-07-21T17:15:09.234Z,38.21
2018-07-21T17:17:36.399Z,38.49
2018-07-21T17:20:03.617Z,38.15
2018-07-21T17:22:30.533Z,37.81
2018-07-21T17:24:57.460Z,38.13
2018-07-21T17:27:24.336Z,38.51
2018-07-21T17:29:52.291Z,37.97
2018-07-21T17:32:19.149Z,38.18
2018-07-21T17:34:46.371Z,37.86
2018-07-21T17:37:13.395Z,38.33
2018-07-21T17:39:40.531Z,39.45
2018-07-21T17:42:08.930Z,39.19
2018-07-21T17:44:36.213Z,39.12
2018-07-21T17:47:03.368Z,39.29
2018-07-21T17:49:30.643Z,39.85
2018-07-21T17:51:57.973Z,40.40
2018-07-21T17:54:25.222Z,41.26
2018-07-21T17:56:52.348Z,41.32
2018-07-21T17:59:19.908Z,40.95
2018-07-21T18:01:53.904Z,41.02
2018-07-21T18:04:21.114Z,42.03
2018-07-21T18:06:48.458Z,41.52
2018-07-21T18:09:15.505Z,41.26
2018-07-21T18:11:42.559Z,41.90
2018-07-21T18:14:09.801Z,42.15
2018-07-21T18:16:36.684Z,43.06
2018-07-21T18:19:03.560Z,41.87
2018-07-21T18:21:30.473Z,42.71
2018-07-21T18:23:57.348Z,42.53
2018-07-21T18:26:24.228Z,43.36
2018-07-21T18:28:51.132Z,44.78
2018-07-21T18:31:18.020Z,45.23
2018-07-21T18:33:44.925Z,44.73
2018-07-21T18:36:11.826Z,44.73
2018-07-21T18:38:38.935Z,44.55
2018-07-21T18:41:06.688Z,46.05
2018-07-21T18:43:33.607Z,46.30
2018-07-21T18:46:00.484Z,47.34
2018-07-21T18:48:27.383Z,47.55
2018-07-21T18:50:54.269Z,47.71
2018-07-21T18:53:21.163Z,48.03
2018-07-21T18:55:48.034Z,47.91
2018-07-21T18:58:14.924Z,47.68
2018-07-21T19:00:41.822Z,48.50
2018-07-21T19:03:08.720Z,48.65
2018-07-21T19:05:35.612Z,48.45
2018-07-21T19:08:02.496Z,49.27
2018-07-21T19:10:29.372Z,48.86
2018-07-21T19:12:56.248Z,50.50
2018-07-21T19:15:29.031Z,50.46
2018-07-21T19:17:55.924Z,50.46
2018-07-21T19:20:28.501Z,49.45
2018-07-21T19:22:55.396Z,49.83
2018-07-21T19:25:28.089Z,49.57
2018-07-21T19:27:54.988Z,50.02
2018-07-21T19:30:21.867Z,50.02
2018-07-21T19:32:54.508Z,50.63
2018-07-21T19:35:21.381Z,50.50
2018-07-21T19:37:49.012Z,51.28
2018-07-21T19:40:16.987Z,51.83
2018-07-21T19:42:43.949Z,51.96
2018-07-21T19:45:10.956Z,52.13
2018-07-21T19:47:37.881Z,52.07
2018-07-21T19:50:04.975Z,53.35
2018-07-21T19:52:31.848Z,53.75
2018-07-21T19:54:58.739Z,53.12
2018-07-21T19:57:25.612Z,52.88
2018-07-21T19:59:52.511Z,53.14
2018-07-21T20:02:19.368Z,51.87
2018-07-21T20:04:46.295Z,51.20
2018-07-21T20:07:13.196Z,52.43
2018-07-21T20:09:40.064Z,52.02
2018-07-21T20:12:06.948Z,51.56
2018-07-21T20:14:33.836Z,51.92
2018-07-21T20:17:00.740Z,51.95
2018-07-21T20:19:27.624Z,51.89
2018-07-21T20:21:54.503Z,51.25
2018-07-21T20:24:21.384Z,50.19
2018-07-21T20:26:48.265Z,49.40
2018-07-21T20:29:15.145Z,50.32
2018-07-21T20:31:42.037Z,49.65
2018-07-21T20:34:08.937Z,49.97
2018-07-21T20:36:35.796Z,50.65
2018-07-21T20:39:03.325Z,50.47
2018-07-21T20:41:30.192Z,49.93
2018-07-21T20:43:57.067Z,51.32
2018-07-21T20:46:23.953Z,50.85
2018-07-21T20:48:50.864Z,51.60
2018-07-21T20:51:17.732Z,51.54
2018-07-21T20:53:44.620Z,51.37
2018-07-21T20:56:11.497Z,51.26
2018-07-21T20:58:38.413Z,51.47
2018-07-21T21:01:05.404Z,51.91
2018-07-21T21:03:32.300Z,52.08
2018-07-21T21:05:59.192Z,52.19
2018-07-21T21:08:26.064Z,52.35
2018-07-21T21:10:52.972Z,52.46
2018-07-21T21:13:19.896Z,52.81
2018-07-21T21:15:46.811Z,53.48
2018-07-21T21:18:13.692Z,53.91
2018-07-21T21:20:40.593Z,54.44
2018-07-21T21:23:07.481Z,53.97
2018-07-21T21:25:34.441Z,53.92
2018-07-21T21:28:01.353Z,53.80
2018-07-21T21:30:28.244Z,53.92
2018-07-21T21:32:55.153Z,54.72
2018-07-21T21:35:22.040Z,54.81
2018-07-21T21:37:48.920Z,54.71
2018-07-21T21:40:15.828Z,55.01
2018-07-21T21:42:42.817Z,55.38
2018-07-21T21:45:09.668Z,56.27
2018-07-21T21:47:36.543Z,56.12
2018-07-21T21:50:03.615Z,56.17
2018-07-21T21:52:30.517Z,56.81
2018-07-21T21:54:57.464Z,56.87
2018-07-21T21:57:24.348Z,56.66
2018-07-21T21:59:51.271Z,57.17
2018-07-21T22:02:18.207Z,57.29
2018-07-21T22:04:45.213Z,56.88
2018-07-21T22:07:12.104Z,57.53
2018-07-21T22:09:38.980Z,58.35
2018-07-21T22:12:05.875Z,58.50
2018-07-21T22:14:32.794Z,58.41
2018-07-21T22:16:59.699Z,58.90
2018-07-21T22:19:26.592Z,59.32
2018-07-21T22:21:53.578Z,59.02
2018-07-21T22:24:20.466Z,59.60
2018-07-21T22:26:47.367Z,59.81
2018-07-21T22:29:14.256Z,60.41
2018-07-21T22:31:41.162Z,60.77
2018-07-21T22:34:08.074Z,61.59
2018-07-21T22:36:35.166Z,61.45
2018-07-21T22:39:02.174Z,60.51
2018-07-21T22:41:29.060Z,60.87
2018-07-21T22:43:55.968Z,61.44
2018-07-21T22:46:22.880Z,61.21
2018-07-21T22:48:49.764Z,61.71
2018-07-21T22:51:16.675Z,61.84
2018-07-21T22:53:43.547Z,62.72
2018-07-21T22:56:10.429Z,62.57
2018-07-21T22:58:37.378Z,63.04
2018-07-21T23:01:04.479Z,63.27
2018-07-21T23:03:31.368Z,62.48
2018-07-21T23:05:58.280Z,63.17
2018-07-21T23:08:25.183Z,63.89
2018-07-21T23:10:52.101Z,62.82
2018-07-21T23:13:19.080Z,63.61
2018-07-21T23:15:45.996Z,64.23
2018-07-21T23:18:12.896Z,64.15
2018-07-21T23:20:40.487Z,64.41
2018-07-21T23:23:07.371Z,64.50
2018-07-21T23:25:34.300Z,64.68
2018-07-21T23:28:01.179Z,66.01
2018-07-21T23:30:28.088Z,65.94
2018-07-21T23:32:54.996Z,65.74
2018-07-21T23:35:21.887Z,65.05
2018-07-21T23:37:48.801Z,66.00
2018-07-21T23:40:15.684Z,65.92
2018-07-21T23:42:42.588Z,66.19
2018-07-21T23:45:09.497Z,66.28
2018-07-21T23:47:36.395Z,66.56
2018-07-21T23:50:03.303Z,66.42
2018-07-21T23:52:30.197Z,66.05
2018-07-21T23:54:57.095Z,66.01
2018-07-21T23:57:23.980Z,66.50
2018-07-21T23:59:50.856Z,66.78
